Time;durP1;ratioP1;P1;durP2;ratioP2;P2;SDS_P1;SDS_P2;PMS_P1;PMS_P2;Temp;Humidity;BMP_temperature;BMP_pressure;BME280_temperature;BME280_humidity;BME280_pressure;Samples;Min_cycle;Max_cycle;Signal;HPM_P1;HPM_P2
2022/04/30 00:00:45;;;;;;;13.45;5.22;;;;;;;6.78;75.21;102895.66;5028087;28;20281;-69
2022/04/30 00:03:10;;;;;;;13.93;5.30;;;;;;;6.76;75.54;102894.75;5026983;28;20037;-70
2022/04/30 00:05:35;;;;;;;13.48;5.60;;;;;;;6.74;75.72;102896.44;5008461;28;20022;-70
2022/04/30 00:08:05;;;;;;;13.55;5.40;;;;;;;6.69;76.11;102892.84;5022296;28;20022;-70
2022/04/30 00:10:37;;;;;;;11.38;4.88;;;;;;;6.64;75.88;102897.88;5012646;28;20034;-69
2022/04/30 00:13:03;;;;;;;10.85;4.60;;;;;;;6.57;76.11;102882.22;5029163;28;20021;-70
2022/04/30 00:15:28;;;;;;;10.77;4.78;;;;;;;6.58;76.09;102897.75;5014391;28;20120;-70
2022/04/30 00:17:53;;;;;;;11.37;4.90;;;;;;;6.56;76.58;102891.66;5019499;28;20284;-70
2022/04/30 00:20:19;;;;;;;12.15;5.00;;;;;;;6.56;77.35;102899.41;5013014;28;20288;-70
2022/04/30 00:22:45;;;;;;;10.98;4.78;;;;;;;6.56;77.11;102888.22;5028640;28;20030;-70
2022/04/30 00:25:10;;;;;;;13.30;4.80;;;;;;;6.55;76.55;102891.66;5026324;28;20036;-70
2022/04/30 00:27:35;;;;;;;10.27;4.55;;;;;;;6.53;77.04;102893.31;5016449;28;20173;-72
2022/04/30 00:30:02;;;;;;;10.40;4.63;;;;;;;6.50;76.87;102886.34;5023940;28;20029;-72
2022/04/30 00:32:27;;;;;;;9.65;4.72;;;;;;;6.49;76.87;102886.31;5028668;28;20033;-72
2022/04/30 00:34:53;;;;;;;10.50;4.57;;;;;;;6.46;77.09;102886.25;5027142;28;20040;-72
2022/04/30 00:37:18;;;;;;;10.55;4.75;;;;;;;6.42;77.25;102882.72;5015938;28;20099;-72
2022/04/30 00:39:43;;;;;;;11.57;4.60;;;;;;;6.39;77.61;102894.66;5018173;28;20109;-72
2022/04/30 00:42:12;;;;;;;10.30;4.50;;;;;;;6.34;78.06;102882.53;5028393;28;20371;-72
2022/04/30 00:44:38;;;;;;;12.80;4.50;;;;;;;6.33;78.03;102885.06;5021059;28;20044;-72
2022/04/30 00:47:03;;;;;;;10.98;4.70;;;;;;;6.30;78.15;102887.53;5011380;28;20101;-72
2022/04/30 00:49:29;;;;;;;10.63;4.45;;;;;;;6.24;77.87;102877.97;5028584;28;20506;-70
2022/04/30 00:51:59;;;;;;;9.95;4.38;;;;;;;6.19;76.85;102874.41;5018501;28;20050;-70
2022/04/30 00:54:26;;;;;;;11.13;4.38;;;;;;;6.17;78.19;102875.16;5027254;28;20395;-70
2022/04/30 00:57:02;;;;;;;10.85;4.63;;;;;;;6.16;78.62;102871.72;5033702;28;20087;-70
2022/04/30 00:59:29;;;;;;;11.73;4.65;;;;;;;6.14;78.86;102875.09;5028580;28;20083;-69
2022/04/30 01:01:59;;;;;;;11.50;4.45;;;;;;;6.06;78.22;102867.19;5014918;28;20054;-69
2022/04/30 01:04:25;;;;;;;10.52;4.90;;;;;;;6.02;78.50;102862.75;5012403;28;20034;-70
2022/04/30 01:06:57;;;;;;;12.50;4.60;;;;;;;6.00;78.95;102867.00;5012878;28;20044;-69
2022/04/30 01:09:28;;;;;;;10.98;4.65;;;;;;;5.93;78.67;102863.41;5021560;28;20029;-69
2022/04/30 01:12:00;;;;;;;12.93;5.05;;;;;;;5.91;79.54;102865.03;5028543;28;20474;-70
2022/04/30 01:14:30;;;;;;;10.38;4.72;;;;;;;5.88;78.66;102870.09;5022837;28;20044;-70
2022/04/30 01:16:57;;;;;;;11.27;4.63;;;;;;;5.83;80.22;102860.47;5017780;28;20029;-70
2022/04/30 01:19:24;;;;;;;10.23;4.53;;;;;;;5.82;80.50;102858.72;5018831;28;20057;-70
2022/04/30 01:21:57;;;;;;;13.30;4.60;;;;;;;5.83;80.12;102856.19;5024590;28;20131;-70
2022/04/30 01:24:25;;;;;;;13.30;4.80;;;;;;;5.82;80.58;102856.16;5021737;28;20666;-70
2022/04/30 01:26:52;;;;;;;10.73;4.78;;;;;;;5.78;80.65;102862.94;5021116;28;20093;-69
2022/04/30 01:29:19;;;;;;;10.70;4.45;;;;;;;5.77;80.82;102860.31;5020787;28;20137;-70
2022/04/30 01:37:25;;;;;;;13.82;4.63;;;;;;;5.72;80.77;102849.00;5029080;28;20080;-70
2022/04/30 01:39:59;;;;;;;12.18;4.78;;;;;;;5.70;81.46;102848.97;5037567;28;20030;-69
2022/04/30 01:42:29;;;;;;;14.63;4.93;;;;;;;5.70;81.38;102848.97;5031874;28;20534;-70
2022/04/30 01:44:56;;;;;;;13.15;5.20;;;;;;;5.68;81.44;102854.88;5017521;28;20083;-70
2022/04/30 01:47:22;;;;;;;12.73;5.00;;;;;;;5.64;81.61;102858.22;5023286;28;20021;-70
2022/04/30 01:49:47;;;;;;;13.05;4.70;;;;;;;5.61;82.15;102853.84;5017647;28;20068;-70
2022/04/30 01:52:16;;;;;;;14.45;5.03;;;;;;;5.60;82.23;102849.50;5022361;28;20079;-70
2022/04/30 01:54:42;;;;;;;11.55;4.78;;;;;;;5.57;82.13;102855.47;5017082;28;20109;-70
2022/04/30 01:57:08;;;;;;;13.40;4.90;;;;;;;5.53;81.61;102851.03;5028748;28;20032;-69
2022/04/30 01:59:33;;;;;;;14.02;5.43;;;;;;;5.53;82.71;102847.59;5010741;28;20365;-70
2022/04/30 02:01:59;;;;;;;11.50;4.97;;;;;;;5.54;83.07;102849.34;5024839;28;20140;-69
2022/04/30 02:04:25;;;;;;;14.55;5.13;;;;;;;5.53;81.98;102852.72;5023995;28;20460;-70
2022/04/30 02:06:50;;;;;;;12.80;5.18;;;;;;;5.51;82.19;102841.56;5028112;28;20029;-70
2022/04/30 02:09:17;;;;;;;15.02;5.40;;;;;;;5.48;83.13;102839.75;5022811;28;20087;-70
2022/04/30 02:11:44;;;;;;;15.63;5.20;;;;;;;5.44;81.97;102829.34;5026147;28;20479;-70
2022/04/30 02:14:14;;;;;;;14.48;5.38;;;;;;;5.42;82.78;102834.44;5022632;28;20029;-69
2022/04/30 02:16:41;;;;;;;14.82;5.60;;;;;;;5.43;82.98;102843.03;5028716;28;20472;-70
2022/04/30 02:19:08;;;;;;;14.38;5.60;;;;;;;5.42;83.33;102829.28;5021462;28;20041;-70
2022/04/30 02:21:35;;;;;;;12.63;5.22;;;;;;;5.39;82.40;102829.19;5029674;28;20029;-70
2022/04/30 02:24:02;;;;;;;13.68;5.78;;;;;;;5.35;82.03;102829.06;5014317;28;20032;-70
2022/04/30 02:26:28;;;;;;;12.95;5.30;;;;;;;5.26;82.85;102821.06;5019435;28;20611;-70
2022/04/30 02:28:55;;;;;;;12.15;5.55;;;;;;;5.27;83.30;102825.38;5015937;28;20068;-70
2022/04/30 02:31:25;;;;;;;13.65;6.18;;;;;;;5.22;83.75;102825.25;5028563;28;20029;-69
2022/04/30 02:33:56;;;;;;;14.13;5.82;;;;;;;5.25;83.92;102819.34;5021590;28;20117;-70
2022/04/30 02:36:28;;;;;;;17.20;6.00;;;;;;;5.25;83.75;102825.38;5012870;28;20029;-69
2022/04/30 02:38:59;;;;;;;17.38;5.90;;;;;;;5.21;83.19;102831.22;5021879;28;20081;-69
2022/04/30 02:41:24;;;;;;;15.35;5.85;;;;;;;5.21;83.89;102830.34;5024543;28;20025;-70
2022/04/30 02:43:51;;;;;;;16.73;6.60;;;;;;;5.19;84.46;102829.44;5024115;28;20036;-69
2022/04/30 02:46:20;;;;;;;17.50;6.55;;;;;;;5.19;84.56;102824.31;5026860;28;20068;-70
2022/04/30 02:48:46;;;;;;;17.45;6.20;;;;;;;5.16;84.22;102820.81;5030130;28;20483;-70
2022/04/30 02:51:12;;;;;;;16.83;5.93;;;;;;;5.15;84.07;102820.75;5029804;28;20060;-69
2022/04/30 02:53:38;;;;;;;19.63;6.78;;;;;;;5.11;84.56;102816.38;5012919;28;20037;-70
2022/04/30 02:56:05;;;;;;;16.52;6.85;;;;;;;5.08;84.72;102811.13;5021109;28;20037;-69
2022/04/30 03:01:14;;;;;;;15.65;6.28;;;;;;;5.06;84.36;102817.91;5015697;28;20159;-69
2022/04/30 03:03:40;;;;;;;15.00;6.93;;;;;;;5.03;84.23;102815.25;5029307;28;20199;-69
2022/04/30 03:06:07;;;;;;;17.45;6.68;;;;;;;5.01;84.59;102810.06;5028678;28;20046;-70
2022/04/30 03:08:32;;;;;;;19.40;6.80;;;;;;;5.00;84.46;102810.00;5019243;28;20025;-69
2022/04/30 03:10:59;;;;;;;20.20;7.20;;;;;;;4.99;84.72;102808.25;5025425;28;20068;-70
2022/04/30 03:13:25;;;;;;;17.73;6.43;;;;;;;4.94;84.38;102805.56;5030110;28;20100;-70
2022/04/30 03:15:52;;;;;;;17.35;6.82;;;;;;;4.89;84.48;102801.97;5028283;28;20025;-70
2022/04/30 03:23:48;;;;;;;;;;;;;;;4.92;83.06;102806.31;5015821;28;20045;-70
2022/04/30 03:26:15;;;;;;;23.23;7.05;;;;;;;4.91;84.36;102809.75;5028334;28;19913;-69
2022/04/30 03:28:42;;;;;;;19.77;7.13;;;;;;;4.86;85.02;102801.88;5007931;28;20072;-69
2022/04/30 03:31:12;;;;;;;17.23;7.00;;;;;;;4.86;85.01;102811.28;5029566;28;20025;-70
2022/04/30 03:33:38;;;;;;;20.42;7.50;;;;;;;4.82;85.42;102794.91;5018630;28;20029;-69
2022/04/30 03:36:04;;;;;;;22.30;7.95;;;;;;;4.85;85.84;102800.13;5016553;28;20364;-70
2022/04/30 03:38:29;;;;;;;19.83;7.40;;;;;;;4.86;86.01;102796.72;5017137;28;20034;-70
2022/04/30 03:40:55;;;;;;;17.45;6.95;;;;;;;4.84;85.56;102793.25;5029219;28;20032;-69
2022/04/30 03:43:20;;;;;;;16.38;7.20;;;;;;;4.81;85.29;102798.28;5011490;28;20091;-69
2022/04/30 03:45:46;;;;;;;20.08;7.60;;;;;;;4.78;85.32;102789.63;5022530;28;20388;-70
2022/04/30 03:48:15;;;;;;;18.90;7.22;;;;;;;4.76;85.49;102795.59;5011539;28;20442;-70
2022/04/30 03:50:42;;;;;;;20.00;7.20;;;;;;;4.76;85.57;102794.72;5022468;28;20103;-69
2022/04/30 03:53:07;;;;;;;18.30;6.65;;;;;;;4.69;85.35;102790.22;5017935;28;20105;-70
2022/04/30 03:55:33;;;;;;;22.52;7.95;;;;;;;4.65;85.23;102794.34;5022021;28;20072;-69
2022/04/30 03:57:58;;;;;;;18.73;7.38;;;;;;;4.62;85.83;102789.13;5008553;28;20112;-69
2022/04/30 04:00:24;;;;;;;20.65;7.53;;;;;;;4.58;85.39;102786.41;5025296;28;20535;-69
2022/04/30 04:02:49;;;;;;;15.68;7.10;;;;;;;4.57;85.84;102782.97;5022710;28;20064;-70
2022/04/30 04:05:15;;;;;;;21.98;7.72;;;;;;;4.54;86.43;102788.00;5012813;28;20022;-69
2022/04/30 04:07:41;;;;;;;21.45;8.13;;;;;;;4.56;85.91;102794.09;5017928;28;20088;-70
2022/04/30 04:10:09;;;;;;;22.88;7.78;;;;;;;4.55;86.01;102796.59;5012647;28;20037;-69
2022/04/30 04:12:35;;;;;;;18.38;7.43;;;;;;;4.52;86.08;102787.09;5017480;28;20029;-69
2022/04/30 04:17:44;;;;;;;21.13;7.63;;;;;;;4.48;85.54;102792.09;5018935;28;20360;-70
2022/04/30 04:20:13;;;;;;;21.15;7.82;;;;;;;4.46;86.05;102791.16;5022921;28;20445;-69
2022/04/30 04:22:39;;;;;;;16.88;7.57;;;;;;;4.45;85.79;102792.84;5009229;28;20025;-70
2022/04/30 04:27:54;;;;;;;21.27;7.75;;;;;;;4.45;85.94;102790.28;5023884;28;20036;-69
2022/04/30 04:30:23;;;;;;;21.48;7.88;;;;;;;4.41;85.79;102782.44;5006756;28;20029;-69
2022/04/30 04:32:49;;;;;;;20.45;8.10;;;;;;;4.45;85.87;102795.41;5004801;28;20084;-70
2022/04/30 04:35:15;;;;;;;20.80;7.90;;;;;;;4.44;85.44;102793.66;5004693;28;20037;-70
2022/04/30 04:37:41;;;;;;;25.10;8.13;;;;;;;4.45;85.93;102790.28;5005308;28;20547;-70
2022/04/30 04:40:08;;;;;;;19.88;7.47;;;;;;;4.45;86.08;102789.41;5026810;28;20081;-69
2022/04/30 04:42:33;;;;;;;20.15;7.75;;;;;;;4.48;86.56;102797.22;5021696;28;20018;-69
2022/04/30 04:44:58;;;;;;;21.75;8.10;;;;;;;4.52;86.57;102804.19;5034682;28;20079;-70
2022/04/30 04:47:24;;;;;;;21.10;8.00;;;;;;;4.53;86.48;102805.94;5019529;28;20404;-70
2022/04/30 04:49:49;;;;;;;24.42;9.02;;;;;;;4.56;86.73;102801.78;5008587;28;20292;-70
2022/04/30 04:52:15;;;;;;;20.33;8.07;;;;;;;4.61;86.52;102813.06;5014774;28;20092;-70
2022/04/30 04:54:40;;;;;;;22.60;8.27;;;;;;;4.65;86.44;102816.59;4998282;28;20435;-69
2022/04/30 04:57:06;;;;;;;22.35;8.48;;;;;;;4.73;86.41;102817.72;5001344;28;20143;-69
2022/04/30 04:59:31;;;;;;;19.88;8.38;;;;;;;4.78;86.39;102818.72;5002796;28;20438;-70
2022/04/30 05:01:56;;;;;;;22.13;8.77;;;;;;;4.86;86.51;102821.53;5003843;28;20037;-70
2022/04/30 05:04:23;;;;;;;27.58;9.43;;;;;;;4.95;86.27;102821.84;5002697;28;20762;-69
2022/04/30 05:06:49;;;;;;;23.55;9.05;;;;;;;5.04;86.02;102824.72;5004531;28;20023;-70
2022/04/30 05:09:14;;;;;;;24.30;9.93;;;;;;;5.15;86.76;102833.59;5003658;28;20049;-69
2022/04/30 05:11:41;;;;;;;23.92;9.77;;;;;;;5.26;86.80;102837.38;5002380;28;20091;-70
2022/04/30 05:14:06;;;;;;;27.42;9.68;;;;;;;5.38;86.88;102836.88;5000978;28;20040;-70
2022/04/30 05:16:32;;;;;;;29.73;10.52;;;;;;;5.44;86.22;102830.22;5027240;28;20025;-69
2022/04/30 05:18:57;;;;;;;23.40;9.82;;;;;;;5.49;86.06;102828.63;5001730;28;20029;-70
2022/04/30 05:21:23;;;;;;;24.67;10.82;;;;;;;5.53;86.52;102830.47;5002597;28;20057;-70
2022/04/30 05:23:48;;;;;;;25.95;11.00;;;;;;;5.57;86.06;102828.88;4999881;28;20053;-70
2022/04/30 05:26:13;;;;;;;25.08;10.63;;;;;;;5.61;86.02;102830.69;5002110;28;20084;-69
2022/04/30 05:28:38;;;;;;;26.60;11.27;;;;;;;5.66;86.45;102828.25;5002155;28;20071;-70
2022/04/30 05:31:07;;;;;;;29.57;10.67;;;;;;;5.69;86.45;102825.75;5004788;28;20033;-70
2022/04/30 05:33:35;;;;;;;30.80;10.98;;;;;;;5.71;86.12;102830.13;5002524;28;20335;-70
2022/04/30 05:36:01;;;;;;;25.33;10.80;;;;;;;5.73;85.92;102823.31;5003344;28;20045;-70
2022/04/30 05:38:26;;;;;;;24.58;10.25;;;;;;;5.77;86.30;102827.72;5004776;28;20225;-70
2022/04/30 05:40:51;;;;;;;28.15;10.93;;;;;;;5.83;85.67;102832.16;5001486;28;20045;-70
2022/04/30 05:43:17;;;;;;;24.73;10.33;;;;;;;5.90;85.97;102834.97;5000237;28;20460;-70
2022/04/30 05:45:42;;;;;;;21.88;10.40;;;;;;;5.96;86.13;102829.13;5002920;28;20285;-70
2022/04/30 05:48:08;;;;;;;25.35;11.02;;;;;;;6.00;87.11;102833.53;5011337;28;20069;-70
2022/04/30 05:50:33;;;;;;;26.92;11.07;;;;;;;6.08;85.82;102828.56;5011543;28;20459;-70
2022/04/30 05:52:59;;;;;;;27.10;11.20;;;;;;;6.16;87.00;102832.22;5011566;28;20056;-70
2022/04/30 05:55:24;;;;;;;25.08;10.30;;;;;;;6.26;86.37;102836.81;5002922;28;20053;-70
2022/04/30 05:57:50;;;;;;;27.60;11.35;;;;;;;6.37;86.59;102839.63;5017398;28;20029;-70
2022/04/30 06:00:16;;;;;;;27.15;11.80;;;;;;;6.46;86.11;102830.47;5010324;28;20045;-70
2022/04/30 06:02:41;;;;;;;29.23;12.02;;;;;;;6.60;85.79;102835.94;5014022;28;20034;-70
2022/04/30 06:05:08;;;;;;;26.80;11.80;;;;;;;6.78;85.67;102838.09;5014546;28;20044;-70
2022/04/30 06:07:34;;;;;;;29.50;11.98;;;;;;;6.90;84.51;102843.53;5011460;28;20100;-70
2022/04/30 06:09:59;;;;;;;25.48;11.50;;;;;;;7.00;83.96;102833.47;5015606;28;20034;-70
2022/04/30 06:12:24;;;;;;;29.42;11.80;;;;;;;7.12;83.63;102836.31;5006516;28;20302;-70
2022/04/30 06:14:49;;;;;;;27.25;11.40;;;;;;;7.30;84.32;102832.44;5025216;28;20448;-70
2022/04/30 06:17:15;;;;;;;27.35;11.15;;;;;;;7.46;83.69;102826.72;5027688;28;20682;-70
2022/04/30 06:19:40;;;;;;;26.15;10.93;;;;;;;7.59;83.00;102826.16;5019868;28;20030;-70
2022/04/30 06:22:05;;;;;;;27.27;10.85;;;;;;;7.81;82.19;102830.03;5012093;28;20041;-70
2022/04/30 06:24:31;;;;;;;25.35;10.40;;;;;;;8.00;80.90;102831.25;5030985;28;20147;-70
2022/04/30 06:26:56;;;;;;;21.95;9.95;;;;;;;7.98;80.87;102835.53;5011767;28;20014;-70
2022/04/30 06:29:22;;;;;;;23.27;10.23;;;;;;;7.98;81.24;102838.13;5009177;28;20018;-70
2022/04/30 06:31:50;;;;;;;26.88;10.60;;;;;;;8.01;80.95;102833.00;5016818;28;20388;-70
2022/04/30 06:34:16;;;;;;;22.15;10.20;;;;;;;8.08;81.93;102830.56;5015774;28;20510;-70
2022/04/30 06:36:41;;;;;;;21.75;10.75;;;;;;;8.27;81.17;102842.09;5007873;28;20026;-70
2022/04/30 06:39:07;;;;;;;22.53;10.50;;;;;;;8.53;78.90;102840.84;5009205;28;20022;-70
2022/04/30 06:41:33;;;;;;;25.80;10.85;;;;;;;8.77;79.56;102836.94;5010249;28;20292;-71
2022/04/30 06:43:58;;;;;;;22.10;10.13;;;;;;;8.91;80.35;102835.44;5011891;28;20018;-70
2022/04/30 06:46:23;;;;;;;24.53;11.13;;;;;;;9.02;79.58;102834.75;5005785;28;20026;-70
2022/04/30 06:48:49;;;;;;;26.58;10.48;;;;;;;9.27;78.71;102837.69;5009370;28;20277;-70
2022/04/30 06:51:14;;;;;;;20.25;10.25;;;;;;;9.85;74.90;102831.50;5018037;28;20088;-71
2022/04/30 06:59:10;;;;;;;20.70;10.20;;;;;;;12.40;67.38;102829.63;5010057;28;20383;-71
2022/04/30 07:01:57;;;;;;;23.20;10.82;;;;;;;12.91;65.27;102820.91;5011331;28;20396;-71
2022/04/30 07:04:24;;;;;;;20.42;10.32;;;;;;;13.10;61.95;102830.44;5005476;28;20086;-71
2022/04/30 07:06:49;;;;;;;21.25;10.52;;;;;;;12.90;63.77;102830.47;5015188;28;20052;-71
2022/04/30 07:09:15;;;;;;;22.45;11.27;;;;;;;12.81;65.29;102832.22;5011258;28;20061;-72
2022/04/30 07:11:40;;;;;;;18.23;10.40;;;;;;;12.86;63.03;102826.16;5026537;28;20223;-71
2022/04/30 07:14:05;;;;;;;23.45;11.15;;;;;;;13.26;63.63;102826.94;5016236;28;20145;-72
2022/04/30 07:16:31;;;;;;;24.08;10.27;;;;;;;13.68;59.12;102840.69;5014791;28;20033;-72
2022/04/30 07:18:56;;;;;;;19.52;9.38;;;;;;;13.90;59.76;102829.28;5013621;28;20064;-72
2022/04/30 07:21:23;;;;;;;18.67;9.90;;;;;;;14.15;58.66;102836.09;5009470;28;20046;-72
2022/04/30 07:23:49;;;;;;;19.58;9.93;;;;;;;14.47;58.02;102835.88;5006348;28;20084;-72
2022/04/30 07:26:16;;;;;;;23.50;10.05;;;;;;;14.66;55.64;102831.38;5024593;28;20033;-72
2022/04/30 07:28:41;;;;;;;19.77;10.52;;;;;;;14.97;58.16;102821.50;5023461;28;20018;-72
2022/04/30 07:31:08;;;;;;;17.95;10.23;;;;;;;15.31;55.28;102822.88;5011262;28;20038;-73
2022/04/30 07:33:34;;;;;;;17.95;9.52;;;;;;;15.67;55.19;102831.19;5029447;28;20048;-73
2022/04/30 07:35:59;;;;;;;20.83;10.25;;;;;;;15.82;53.98;102820.53;5022565;28;20403;-73
2022/04/30 07:38:24;;;;;;;16.67;9.50;;;;;;;15.84;51.84;102817.84;5029473;28;20029;-73
2022/04/30 07:40:51;;;;;;;17.10;9.85;;;;;;;15.22;52.76;102819.47;5029388;28;20374;-73
2022/04/30 07:43:17;;;;;;;17.45;9.27;;;;;;;14.89;54.31;102818.97;5010262;28;20133;-73
2022/04/30 07:45:42;;;;;;;17.50;10.05;;;;;;;14.82;55.69;102830.34;5008733;28;20104;-73
2022/04/30 07:48:08;;;;;;;19.20;10.00;;;;;;;14.74;55.33;102821.72;5022132;28;20048;-73
2022/04/30 07:50:36;;;;;;;14.65;9.32;;;;;;;14.99;54.03;102824.97;5029080;28;20068;-72
2022/04/30 07:53:06;;;;;;;17.75;8.88;;;;;;;15.64;50.94;102828.59;5018932;28;20087;-73
2022/04/30 07:55:31;;;;;;;15.98;9.82;;;;;;;16.29;51.12;102821.56;5016005;28;20502;-73
2022/04/30 07:57:57;;;;;;;15.45;9.27;;;;;;;16.90;51.13;102817.03;5003994;28;20499;-73
2022/04/30 08:00:23;;;;;;;19.20;9.48;;;;;;;16.88;51.30;102821.44;5012857;28;20567;-73
2022/04/30 08:02:49;;;;;;;16.52;9.50;;;;;;;16.91;49.65;102818.78;5018713;28;20033;-73
2022/04/30 08:05:14;;;;;;;16.15;8.48;;;;;;;17.38;46.57;102814.34;5012034;28;20030;-73
2022/04/30 08:07:39;;;;;;;16.92;8.63;;;;;;;17.93;47.10;102818.44;5014050;28;20025;-73
2022/04/30 08:10:05;;;;;;;19.48;8.93;;;;;;;17.66;45.46;102812.06;5015617;28;20117;-73
2022/04/30 08:12:31;;;;;;;16.17;8.68;;;;;;;17.47;48.07;102810.69;5010383;28;20061;-73
2022/04/30 08:14:56;;;;;;;13.35;8.68;;;;;;;17.43;47.66;102809.00;5011633;28;20117;-73
2022/04/30 08:17:21;;;;;;;14.88;8.70;;;;;;;17.09;49.17;102807.06;5023326;28;20405;-73
2022/04/30 08:19:47;;;;;;;14.65;8.85;;;;;;;16.48;50.11;102813.38;5029330;28;20128;-73
2022/04/30 08:22:13;;;;;;;12.52;7.72;;;;;;;16.45;51.12;102802.94;5015421;28;20492;-73
2022/04/30 08:24:38;;;;;;;15.38;7.78;;;;;;;15.98;48.82;102808.06;5022780;28;20041;-73
2022/04/30 08:27:04;;;;;;;13.05;7.35;;;;;;;15.87;50.19;102803.00;5011321;28;20026;-73
2022/04/30 08:29:29;;;;;;;13.77;7.65;;;;;;;15.47;51.77;102805.25;5017695;28;20041;-73
2022/04/30 08:31:55;;;;;;;13.30;7.43;;;;;;;15.16;54.10;102811.72;5024223;28;20351;-73
2022/04/30 08:34:21;;;;;;;11.50;7.45;;;;;;;14.74;51.38;102807.81;5032906;28;20108;-73
2022/04/30 08:36:46;;;;;;;13.52;7.90;;;;;;;14.56;54.75;102801.88;5031624;28;20029;-73
2022/04/30 08:39:12;;;;;;;15.43;7.60;;;;;;;14.75;53.71;102804.31;5032629;28;20025;-73
2022/04/30 08:41:41;;;;;;;13.73;7.93;;;;;;;14.98;53.29;102808.44;5024957;28;20291;-72
2022/04/30 08:44:06;;;;;;;12.48;7.90;;;;;;;15.19;52.78;102801.25;5021354;28;20029;-72
2022/04/30 08:46:32;;;;;;;12.65;7.57;;;;;;;15.45;53.86;102798.31;5017893;28;20391;-72
2022/04/30 08:48:59;;;;;;;14.10;8.05;;;;;;;15.75;50.30;102793.59;5025565;28;20108;-72
2022/04/30 08:51:25;;;;;;;13.85;8.13;;;;;;;16.27;51.88;102786.69;5032590;28;20045;-72
2022/04/30 08:53:50;;;;;;;16.60;8.90;;;;;;;16.59;49.75;102787.00;5032556;28;20139;-72
2022/04/30 08:56:15;;;;;;;12.85;7.53;;;;;;;15.94;46.53;102788.94;5032723;28;20371;-72
2022/04/30 08:58:41;;;;;;;13.10;7.47;;;;;;;15.05;49.25;102790.09;5019327;28;20127;-72
2022/04/30 09:01:09;;;;;;;12.38;7.45;;;;;;;14.40;52.30;102794.19;5024662;28;20025;-72
2022/04/30 09:03:36;;;;;;;13.10;7.03;;;;;;;13.61;53.51;102792.94;5027223;28;20029;-72
2022/04/30 09:06:06;;;;;;;14.43;7.63;;;;;;;13.11;55.92;102790.50;5032516;28;20030;-72
2022/04/30 09:08:32;;;;;;;13.32;7.40;;;;;;;12.88;57.77;102793.19;5032206;28;20029;-72
2022/04/30 09:11:07;;;;;;;15.02;7.28;;;;;;;12.67;57.59;102793.22;5032881;28;20028;-72
2022/04/30 09:13:41;;;;;;;17.15;8.10;;;;;;;12.61;58.02;102791.50;5031957;28;20029;-72
2022/04/30 09:16:23;;;;;;;16.30;7.95;;;;;;;12.58;58.86;102783.66;5022346;28;20025;-72
2022/04/30 09:18:50;;;;;;;14.15;7.25;;;;;;;12.62;58.89;102789.75;5032291;28;20036;-72
2022/04/30 09:21:17;;;;;;;16.73;8.73;;;;;;;12.78;60.00;102791.44;5021072;28;20029;-72
2022/04/30 09:23:43;;;;;;;16.23;7.90;;;;;;;12.91;58.53;102789.69;5024157;28;20032;-72
2022/04/30 09:26:10;;;;;;;13.95;7.63;;;;;;;13.01;59.30;102787.06;5026088;28;20551;-72
2022/04/30 09:28:37;;;;;;;16.50;9.07;;;;;;;13.12;58.04;102780.94;5021873;28;20025;-72
2022/04/30 09:31:06;;;;;;;16.13;8.13;;;;;;;13.32;57.87;102785.25;5031933;28;20025;-72
2022/04/30 09:33:32;;;;;;;16.98;8.70;;;;;;;13.42;57.27;102781.75;5026436;28;20044;-72
2022/04/30 09:38:53;;;;;;;11.52;7.47;;;;;;;13.83;55.13;102767.63;5018280;28;20102;-72
2022/04/30 09:41:26;;;;;;;12.65;7.18;;;;;;;13.97;55.55;102765.81;5031602;28;20018;-72
2022/04/30 09:44:00;;;;;;;12.33;7.90;;;;;;;14.21;55.17;102770.81;5019453;28;20083;-72
2022/04/30 09:46:26;;;;;;;17.27;7.77;;;;;;;14.58;56.64;102758.38;5031621;28;20075;-72
2022/04/30 09:54:19;;;;;;;11.45;5.97;;;;;;;15.14;52.79;102756.91;5023083;28;20368;-72
2022/04/30 09:56:49;;;;;;;13.53;6.83;;;;;;;15.25;51.72;102754.13;5026076;28;20472;-72
2022/04/30 09:59:16;;;;;;;14.02;6.28;;;;;;;15.26;52.10;102754.13;5008512;28;20304;-72
2022/04/30 10:01:43;;;;;;;11.82;7.20;;;;;;;15.06;50.15;102745.66;5022807;28;20025;-72
2022/04/30 10:04:11;;;;;;;13.60;6.90;;;;;;;14.95;49.55;102747.50;5031045;28;20484;-73
2022/04/30 10:06:50;;;;;;;11.02;6.63;;;;;;;14.86;49.18;102748.50;5018000;28;20455;-72
2022/04/30 10:09:20;;;;;;;11.55;6.70;;;;;;;14.62;49.40;102754.84;5031427;28;20034;-72
2022/04/30 10:12:01;;;;;;;14.98;7.43;;;;;;;14.55;50.35;102750.56;5024777;28;20041;-72
2022/04/30 10:14:59;;;;;;;11.30;6.65;;;;;;;14.48;52.50;102746.28;5027207;28;20034;-73
2022/04/30 10:17:27;;;;;;;13.15;7.22;;;;;;;14.29;49.25;102738.59;5015258;28;20033;-73
2022/04/30 10:20:12;;;;;;;12.25;7.28;;;;;;;14.27;51.70;102745.56;5026121;28;20026;-73
2022/04/30 10:22:49;;;;;;;9.40;5.90;;;;;;;14.34;52.29;102737.66;5017458;28;20469;-73
2022/04/30 10:25:14;;;;;;;13.25;6.72;;;;;;;14.50;51.53;102730.59;5022871;28;20034;-73
2022/04/30 10:27:48;;;;;;;11.88;6.85;;;;;;;14.71;51.14;102732.13;5024280;28;20036;-73
2022/04/30 10:30:24;;;;;;;;;;;;;;;14.84;50.31;102731.13;5010929;28;20033;-73
2022/04/30 10:32:58;;;;;;;12.68;6.82;;;;;;;14.74;48.45;102725.13;5017220;28;19996;-73
2022/04/30 10:35:45;;;;;;;11.63;7.22;;;;;;;14.80;50.46;102719.88;5022599;28;20037;-73
2022/04/30 10:38:13;;;;;;;12.80;7.15;;;;;;;14.70;49.85;102720.81;5030080;28;20048;-73
2022/04/30 10:40:45;;;;;;;13.38;6.95;;;;;;;14.92;51.56;102714.50;5016330;28;20033;-73
2022/04/30 10:43:40;;;;;;;9.80;6.60;;;;;;;15.19;50.30;102713.28;5017151;28;20562;-73
2022/04/30 10:46:22;;;;;;;8.88;5.50;;;;;;;15.33;49.57;102711.34;5014021;28;20119;-73
2022/04/30 10:48:47;;;;;;;8.10;5.72;;;;;;;15.27;45.11;102708.81;5030346;28;20032;-73
2022/04/30 10:51:14;;;;;;;12.65;6.20;;;;;;;14.89;46.11;102704.06;5030052;28;20045;-74
2022/04/30 10:53:45;;;;;;;9.65;6.18;;;;;;;14.83;46.12;102704.16;5023590;28;20111;-73
2022/04/30 10:56:12;;;;;;;11.45;6.63;;;;;;;14.95;47.06;102701.38;5019820;28;20033;-73
2022/04/30 10:58:41;;;;;;;10.15;5.97;;;;;;;14.88;44.41;102698.84;5022009;28;20049;-73
2022/04/30 11:01:17;;;;;;;11.57;5.63;;;;;;;14.85;46.36;102696.28;5028920;28;20045;-73
2022/04/30 11:03:44;;;;;;;9.25;5.20;;;;;;;14.93;47.53;102687.50;5008992;28;20108;-73
2022/04/30 11:06:19;;;;;;;10.95;5.60;;;;;;;14.85;45.32;102684.09;5021037;28;20099;-73
2022/04/30 11:08:44;;;;;;;10.00;5.65;;;;;;;14.66;45.87;102680.00;5006316;28;20495;-73
2022/04/30 11:11:09;;;;;;;10.13;5.10;;;;;;;14.50;43.86;102679.28;5023072;28;20026;-73
2022/04/30 11:13:34;;;;;;;10.87;6.00;;;;;;;14.50;46.64;102676.66;5013070;28;20022;-73
2022/04/30 11:16:00;;;;;;;9.40;5.70;;;;;;;14.47;44.22;102675.81;5014521;28;20391;-73
2022/04/30 11:18:25;;;;;;;9.95;5.85;;;;;;;14.50;44.51;102667.97;5029954;28;20291;-73
2022/04/30 11:21:00;;;;;;;8.20;5.18;;;;;;;14.61;45.92;102668.72;5016226;28;20079;-73
2022/04/30 11:23:26;;;;;;;10.95;5.60;;;;;;;14.85;44.02;102672.78;5018836;28;20047;-73
2022/04/30 11:25:51;;;;;;;12.60;6.15;;;;;;;15.13;46.20;102666.34;5029570;28;20044;-73
2022/04/30 11:28:17;;;;;;;13.60;7.13;;;;;;;15.29;44.18;102662.63;5017310;28;20361;-73
2022/04/30 11:30:45;;;;;;;12.73;6.90;;;;;;;15.41;44.54;102664.22;5026786;28;20035;-73
2022/04/30 11:33:12;;;;;;;11.75;6.60;;;;;;;15.29;46.19;102659.13;5029570;28;20522;-73
2022/04/30 11:35:37;;;;;;;10.95;6.75;;;;;;;15.27;46.09;102659.19;5026864;28;20171;-73
2022/04/30 11:38:07;;;;;;;12.15;6.75;;;;;;;15.22;44.17;102662.72;5017456;28;20461;-73
2022/04/30 11:40:32;;;;;;;11.75;6.53;;;;;;;15.30;46.07;102664.34;5029880;28;20021;-73
2022/04/30 11:42:59;;;;;;;13.98;7.00;;;;;;;15.50;46.54;102648.38;5019179;28;20038;-73
2022/04/30 11:45:25;;;;;;;10.15;6.68;;;;;;;15.69;44.25;102649.84;5024622;28;20021;-73
2022/04/30 11:47:51;;;;;;;11.00;6.28;;;;;;;15.79;40.75;102654.06;5008222;28;20196;-73
2022/04/30 11:50:17;;;;;;;11.77;6.75;;;;;;;15.88;43.25;102641.72;5024288;28;20097;-73
2022/04/30 11:52:43;;;;;;;10.23;6.43;;;;;;;15.91;42.60;102644.25;5027096;28;20053;-73
2022/04/30 11:55:08;;;;;;;11.20;6.40;;;;;;;16.12;42.28;102638.66;5028934;28;20032;-73